createdAt,value
2019-02-25T00:01:22.991Z,15.30
2019-02-25T00:03:49.994Z,16.67
2019-02-25T00:06:17.004Z,16.20
2019-02-25T00:08:44.118Z,16.43
2019-02-25T00:11:11.325Z,15.60
2019-02-25T00:13:38.177Z,15.60
2019-02-25T00:16:05.301Z,15.67
2019-02-25T00:18:32.312Z,15.83
2019-02-25T00:20:59.304Z,14.63
2019-02-25T00:23:26.640Z,15.40
2019-02-25T00:25:53.895Z,14.60
2019-02-25T00:28:20.953Z,15.60
2019-02-25T00:30:48.233Z,14.90
2019-02-25T00:33:15.384Z,14.10
2019-02-25T00:35:42.493Z,15.77
2019-02-25T00:38:09.488Z,15.20
2019-02-25T00:40:37.468Z,15.20
2019-02-25T00:43:04.506Z,15.87
2019-02-25T00:45:31.430Z,16.20
2019-02-25T00:47:58.434Z,15.40
2019-02-25T00:50:27.325Z,16.30
2019-02-25T00:52:54.526Z,15.60
2019-02-25T00:55:21.855Z,15.10
2019-02-25T00:57:48.896Z,16.03
2019-02-25T01:00:16.616Z,15.17
2019-02-25T01:02:43.823Z,14.50
2019-02-25T01:05:10.831Z,15.70
2019-02-25T01:07:38.019Z,16.83
2019-02-25T01:10:05.283Z,14.50
2019-02-25T01:12:32.827Z,14.70
2019-02-25T01:14:59.624Z,14.77
2019-02-25T01:17:26.467Z,14.37
2019-02-25T01:19:53.261Z,14.77
2019-02-25T01:22:20.057Z,14.77
2019-02-25T01:24:46.979Z,15.70
2019-02-25T01:27:13.804Z,14.33
2019-02-25T01:29:40.614Z,16.20
2019-02-25T01:32:07.542Z,15.20
2019-02-25T01:34:34.365Z,14.80
2019-02-25T01:37:01.207Z,14.50
2019-02-25T01:39:28.099Z,13.50
2019-02-25T01:41:55.085Z,13.67
2019-02-25T01:44:21.995Z,13.67
2019-02-25T01:46:48.840Z,15.17
2019-02-25T01:49:15.695Z,14.03
2019-02-25T01:51:42.519Z,14.47
2019-02-25T01:54:09.821Z,15.20
2019-02-25T01:56:36.695Z,15.93
2019-02-25T01:59:03.596Z,14.00
2019-02-25T02:01:30.453Z,13.43
2019-02-25T02:03:57.315Z,13.30
2019-02-25T02:06:24.236Z,13.93
2019-02-25T02:08:51.065Z,14.10
2019-02-25T02:11:17.881Z,13.60
2019-02-25T02:13:44.864Z,12.80
2019-02-25T02:16:12.020Z,13.93
2019-02-25T02:18:38.869Z,13.20
2019-02-25T02:21:05.668Z,13.67
2019-02-25T02:23:32.723Z,14.90
2019-02-25T02:25:59.559Z,13.20
2019-02-25T02:28:26.588Z,12.80
2019-02-25T02:30:53.496Z,14.20
2019-02-25T02:33:20.436Z,13.67
2019-02-25T02:35:47.283Z,13.80
2019-02-25T02:38:14.321Z,13.60
2019-02-25T02:40:41.151Z,14.57
2019-02-25T02:43:07.997Z,12.63
2019-02-25T02:45:36.566Z,13.60
2019-02-25T02:48:11.526Z,13.60
2019-02-25T02:50:38.390Z,13.80
2019-02-25T02:53:05.260Z,14.00
2019-02-25T02:55:32.095Z,14.13
2019-02-25T02:57:59.034Z,13.37
2019-02-25T03:00:25.843Z,12.37
2019-02-25T03:02:52.720Z,13.93
2019-02-25T03:05:19.590Z,13.17
2019-02-25T03:07:46.494Z,12.70
2019-02-25T03:10:14.422Z,12.83
2019-02-25T03:12:41.726Z,12.83
2019-02-25T03:15:10.319Z,12.83
2019-02-25T03:17:37.247Z,12.40
2019-02-25T03:20:04.475Z,13.60
2019-02-25T03:22:31.333Z,13.80
2019-02-25T03:24:58.169Z,12.93
2019-02-25T03:27:25.040Z,13.20
2019-02-25T03:29:51.879Z,13.10
2019-02-25T03:32:18.665Z,13.27
2019-02-25T03:34:45.568Z,13.03
2019-02-25T03:37:12.389Z,12.00
2019-02-25T03:39:39.348Z,13.07
2019-02-25T03:42:06.353Z,12.87
2019-02-25T03:44:33.308Z,13.43
2019-02-25T03:47:00.112Z,12.83
2019-02-25T03:49:26.923Z,12.97
2019-02-25T03:51:53.724Z,13.70
2019-02-25T03:54:20.554Z,12.40
2019-02-25T03:56:47.579Z,13.60
2019-02-25T03:59:14.488Z,14.30
2019-02-25T04:01:41.313Z,14.17
2019-02-25T04:04:08.103Z,12.30
2019-02-25T04:06:42.577Z,13.67
2019-02-25T04:09:09.641Z,12.77
2019-02-25T04:11:36.496Z,12.20
2019-02-25T04:14:03.407Z,12.23
2019-02-25T04:16:30.327Z,12.80
2019-02-25T04:18:57.127Z,12.80
2019-02-25T04:21:23.973Z,13.10
2019-02-25T04:23:50.778Z,13.33
2019-02-25T04:26:17.857Z,13.60
2019-02-25T04:28:44.988Z,12.13
2019-02-25T04:31:12.111Z,12.50
2019-02-25T04:33:39.027Z,12.80
2019-02-25T04:36:05.952Z,13.00
2019-02-25T04:38:32.769Z,11.90
2019-02-25T04:40:59.957Z,13.40
2019-02-25T04:43:26.821Z,12.67
2019-02-25T04:45:53.699Z,12.57
2019-02-25T04:48:20.541Z,12.80
2019-02-25T04:50:47.708Z,12.87
2019-02-25T04:53:14.590Z,13.70
2019-02-25T04:55:41.590Z,12.90
2019-02-25T04:58:08.429Z,13.03
2019-02-25T05:00:35.223Z,13.73
2019-02-25T05:03:02.141Z,13.80
2019-02-25T05:05:29.172Z,13.13
2019-02-25T05:07:56.033Z,12.50
2019-02-25T05:10:23.011Z,13.17
2019-02-25T05:12:55.144Z,13.30
2019-02-25T05:15:23.454Z,12.13
2019-02-25T05:17:50.285Z,12.10
2019-02-25T05:20:17.219Z,14.07
2019-02-25T05:22:44.111Z,13.70
2019-02-25T05:25:11.135Z,13.27
2019-02-25T05:27:37.923Z,13.07
2019-02-25T05:30:04.918Z,13.10
2019-02-25T05:32:31.861Z,12.30
2019-02-25T05:34:58.715Z,12.40
2019-02-25T05:37:25.669Z,12.67
2019-02-25T05:39:52.783Z,12.87
2019-02-25T05:42:19.741Z,13.33
2019-02-25T05:44:46.680Z,13.90
2019-02-25T05:47:13.546Z,13.50
2019-02-25T05:49:40.337Z,14.53
2019-02-25T05:52:07.160Z,13.70
2019-02-25T05:54:33.951Z,13.83
2019-02-25T05:57:00.766Z,18.10
2019-02-25T05:59:27.647Z,14.70
2019-02-25T06:01:54.769Z,14.83
2019-02-25T06:04:21.723Z,14.53
2019-02-25T06:06:48.543Z,14.10
2019-02-25T06:09:15.344Z,14.27
2019-02-25T06:11:42.138Z,18.57
2019-02-25T06:14:09.055Z,14.00
2019-02-25T06:16:36.040Z,14.50
2019-02-25T06:19:03.109Z,15.70
2019-02-25T06:21:30.043Z,14.00
2019-02-25T06:23:57.277Z,14.40
2019-02-25T06:26:24.196Z,13.40
2019-02-25T06:28:50.973Z,14.10
2019-02-25T06:31:17.985Z,15.70
2019-02-25T06:33:45.127Z,15.00
2019-02-25T06:36:31.604Z,14.50
2019-02-25T06:38:58.392Z,14.47
2019-02-25T06:41:25.512Z,15.60
2019-02-25T06:43:52.347Z,14.90
2019-02-25T06:46:19.297Z,14.60
2019-02-25T06:48:46.210Z,15.10
2019-02-25T06:51:13.049Z,15.00
2019-02-25T06:53:40.255Z,13.90
2019-02-25T06:56:07.043Z,15.03
2019-02-25T06:58:34.205Z,13.20
2019-02-25T07:01:01.087Z,16.03
2019-02-25T07:03:28.047Z,16.43
2019-02-25T07:06:09.388Z,14.30
2019-02-25T07:08:59.390Z,16.50
2019-02-25T07:11:54.989Z,15.67
2019-02-25T07:14:32.431Z,15.40
2019-02-25T07:17:22.763Z,14.90
2019-02-25T07:20:01.423Z,14.33
2019-02-25T07:22:57.151Z,16.90
2019-02-25T07:25:46.112Z,16.60
2019-02-25T07:28:27.273Z,16.30
2019-02-25T07:31:02.483Z,16.70
2019-02-25T07:33:49.098Z,15.00
2019-02-25T07:36:24.559Z,15.93
2019-02-25T07:38:59.178Z,16.13
2019-02-25T07:41:48.424Z,17.30
2019-02-25T07:44:29.253Z,18.33
2019-02-25T07:47:12.679Z,16.50
2019-02-25T07:50:00.375Z,15.50
2019-02-25T07:52:45.665Z,16.10
2019-02-25T07:55:44.380Z,15.37
2019-02-25T07:58:15.879Z,15.43
2019-02-25T08:01:11.689Z,17.13
2019-02-25T08:03:44.551Z,16.07
2019-02-25T08:06:25.796Z,15.77
2019-02-25T08:09:11.292Z,16.57
2019-02-25T08:11:48.914Z,17.23
2019-02-25T08:14:25.539Z,19.07
2019-02-25T08:17:10.762Z,19.77
2019-02-25T08:19:55.894Z,19.27
2019-02-25T08:22:32.247Z,19.80
2019-02-25T08:25:08.727Z,19.97
2019-02-25T08:27:54.451Z,20.57
2019-02-25T08:30:33.216Z,20.80
2019-02-25T08:33:07.397Z,22.17
2019-02-25T08:36:11.302Z,21.90
2019-02-25T08:38:51.818Z,21.20
2019-02-25T08:41:30.271Z,20.83
2019-02-25T08:44:15.656Z,20.80
2019-02-25T08:46:47.095Z,22.13
2019-02-25T08:49:21.443Z,22.40
2019-02-25T08:51:48.278Z,22.93
2019-02-25T08:54:15.619Z,22.23
2019-02-25T08:56:42.553Z,23.03
2019-02-25T08:59:09.429Z,22.73
2019-02-25T09:01:36.500Z,23.90
2019-02-25T09:04:03.473Z,23.93
2019-02-25T09:06:30.329Z,25.60
2019-02-25T09:08:57.199Z,26.20
2019-02-25T09:11:24.163Z,23.70
2019-02-25T09:13:51.266Z,25.20
2019-02-25T09:16:18.229Z,25.30
2019-02-25T09:18:45.152Z,27.13
2019-02-25T09:21:12.025Z,24.27
2019-02-25T09:23:38.813Z,24.00
2019-02-25T09:26:07.036Z,26.20
2019-02-25T09:28:33.935Z,26.30
2019-02-25T09:31:00.776Z,25.73
2019-02-25T09:33:27.570Z,27.23
2019-02-25T09:35:54.408Z,28.13
2019-02-25T09:38:21.304Z,27.53
2019-02-25T09:40:48.162Z,27.90
2019-02-25T09:43:15.073Z,28.33
2019-02-25T09:45:42.009Z,29.00
2019-02-25T09:48:09.204Z,29.20
2019-02-25T09:50:36.107Z,30.33
2019-02-25T09:53:03.219Z,30.50
2019-02-25T09:55:30.066Z,31.73
2019-02-25T09:57:56.964Z,32.07
2019-02-25T10:00:23.911Z,32.53
2019-02-25T10:02:51.084Z,31.37
2019-02-25T10:05:18.158Z,33.00
2019-02-25T10:07:45.829Z,31.87
2019-02-25T10:10:12.773Z,29.90
2019-02-25T10:12:39.664Z,29.20
2019-02-25T10:15:07.233Z,30.40
2019-02-25T10:17:34.078Z,28.73
2019-02-25T10:20:01.428Z,30.27
2019-02-25T10:22:28.321Z,29.90
2019-02-25T10:24:55.224Z,30.77
2019-02-25T10:27:22.208Z,30.07
2019-02-25T10:29:49.101Z,30.10
2019-02-25T10:32:16.533Z,30.67
2019-02-25T10:34:43.412Z,30.20
2019-02-25T10:37:11.054Z,31.50
2019-02-25T10:39:39.099Z,30.67
2019-02-25T10:42:05.871Z,31.10
2019-02-25T10:44:34.061Z,30.80
2019-02-25T10:47:01.997Z,34.00
2019-02-25T10:49:31.214Z,32.43
2019-02-25T10:51:58.291Z,32.00
2019-02-25T10:54:25.504Z,31.83
2019-02-25T10:56:59.841Z,31.33
2019-02-25T10:59:26.704Z,31.67
2019-02-25T11:01:53.600Z,30.77
2019-02-25T11:04:21.774Z,31.47
2019-02-25T11:06:49.122Z,30.90
2019-02-25T11:09:34.395Z,30.47
2019-02-25T11:12:02.161Z,28.87
2019-02-25T11:14:28.944Z,33.10
2019-02-25T11:16:55.863Z,31.20
2019-02-25T11:19:24.451Z,29.53
2019-02-25T11:21:51.495Z,29.40
2019-02-25T11:24:20.328Z,27.93
2019-02-25T11:26:47.398Z,29.40
2019-02-25T11:29:16.292Z,27.60
2019-02-25T11:31:45.130Z,27.60
2019-02-25T11:34:12.091Z,28.10
2019-02-25T11:36:39.031Z,27.80
2019-02-25T11:39:07.005Z,25.30
2019-02-25T11:41:36.532Z,28.20
2019-02-25T11:44:03.820Z,26.40
2019-02-25T11:46:30.770Z,28.20
2019-02-25T11:48:57.707Z,27.60
2019-02-25T11:51:24.519Z,27.70
2019-02-25T11:53:51.553Z,27.10
2019-02-25T11:56:18.403Z,27.77
2019-02-25T11:58:45.336Z,27.93
2019-02-25T12:01:13.234Z,26.77
2019-02-25T12:03:40.162Z,26.97
2019-02-25T12:06:07.147Z,28.00
2019-02-25T12:08:34.292Z,26.50
2019-02-25T12:11:01.129Z,27.67
2019-02-25T12:13:28.084Z,25.90
2019-02-25T12:15:55.896Z,27.67
2019-02-25T12:18:22.957Z,27.37
2019-02-25T12:20:49.993Z,28.00
2019-02-25T12:23:17.139Z,26.60
2019-02-25T12:25:44.288Z,25.57
2019-02-25T12:28:11.193Z,26.93
2019-02-25T12:30:38.071Z,28.77
2019-02-25T12:33:04.943Z,27.50
2019-02-25T12:35:31.930Z,27.30
2019-02-25T12:37:58.757Z,28.10
2019-02-25T12:40:25.948Z,27.43
2019-02-25T12:42:52.820Z,27.20
2019-02-25T12:45:19.855Z,28.10
2019-02-25T12:47:47.239Z,27.93
2019-02-25T12:50:14.719Z,27.77
2019-02-25T12:52:41.647Z,28.63
2019-02-25T12:55:08.954Z,27.60
2019-02-25T12:57:35.861Z,27.93
2019-02-25T13:00:03.601Z,25.40
2019-02-25T13:02:30.648Z,27.17
2019-02-25T13:04:57.565Z,30.83
2019-02-25T13:07:24.410Z,25.53
2019-02-25T13:09:51.416Z,28.27
2019-02-25T13:12:18.422Z,27.37
2019-02-25T13:14:45.349Z,25.87
2019-02-25T13:17:12.264Z,26.70
2019-02-25T13:19:39.089Z,27.50
2019-02-25T13:22:06.007Z,28.47
2019-02-25T13:24:35.069Z,26.80
2019-02-25T13:27:03.188Z,28.37
2019-02-25T13:29:31.769Z,26.57
2019-02-25T13:31:58.932Z,25.63
2019-02-25T13:34:28.502Z,24.53
2019-02-25T13:36:55.754Z,25.40
2019-02-25T13:39:26.335Z,25.73
2019-02-25T13:41:54.341Z,26.43
2019-02-25T13:44:21.265Z,27.30
2019-02-25T13:46:50.463Z,24.20
2019-02-25T13:49:20.659Z,25.73
2019-02-25T13:51:47.751Z,27.10
2019-02-25T13:54:14.736Z,27.13
2019-02-25T13:56:42.317Z,27.43
2019-02-25T13:59:09.544Z,27.83
2019-02-25T14:01:36.677Z,29.37
2019-02-25T14:04:03.770Z,28.57
2019-02-25T14:06:30.763Z,27.77
2019-02-25T14:08:57.733Z,28.77
2019-02-25T14:11:24.715Z,27.17
2019-02-25T14:13:51.907Z,25.73
2019-02-25T14:16:19.045Z,27.27
2019-02-25T14:18:49.220Z,25.87
2019-02-25T14:21:16.839Z,27.17
2019-02-25T14:23:44.993Z,26.77
2019-02-25T14:26:22.408Z,26.33
2019-02-25T14:28:49.699Z,25.27
2019-02-25T14:31:30.522Z,26.60
2019-02-25T14:33:58.151Z,24.80
2019-02-25T14:36:28.144Z,26.50
2019-02-25T14:38:56.384Z,24.57
2019-02-25T14:41:23.780Z,24.90
2019-02-25T14:43:51.565Z,23.07
2019-02-25T14:46:22.603Z,23.50
2019-02-25T14:48:48.352Z,22.40
2019-02-25T14:51:15.225Z,22.00
2019-02-25T14:53:44.715Z,22.00
2019-02-25T14:56:11.839Z,22.00
2019-02-25T14:58:40.567Z,21.60
2019-02-25T15:01:07.993Z,21.80
2019-02-25T15:03:34.939Z,20.53
2019-02-25T15:06:02.064Z,21.63
2019-02-25T15:08:30.614Z,20.63
2019-02-25T15:11:01.904Z,20.70
2019-02-25T15:13:28.227Z,19.90
2019-02-25T15:15:55.679Z,20.90
2019-02-25T15:18:25.205Z,19.30
2019-02-25T15:20:53.146Z,19.83
2019-02-25T15:23:23.671Z,21.00
2019-02-25T15:25:49.402Z,20.60
2019-02-25T15:28:18.009Z,19.43
2019-02-25T15:30:47.868Z,18.83
2019-02-25T15:33:14.939Z,19.37
2019-02-25T15:35:43.693Z,18.97
2019-02-25T15:38:11.107Z,20.07
2019-02-25T15:40:38.092Z,18.50
2019-02-25T15:43:06.267Z,17.90
2019-02-25T15:45:38.366Z,19.10
2019-02-25T15:48:07.894Z,17.63
2019-02-25T15:50:35.163Z,17.37
2019-02-25T15:53:03.285Z,18.17
2019-02-25T15:55:30.881Z,16.23
2019-02-25T15:57:57.847Z,18.20
2019-02-25T16:00:27.507Z,18.67
2019-02-25T16:02:55.028Z,18.27
2019-02-25T16:05:23.361Z,18.23
2019-02-25T16:07:51.873Z,18.57
2019-02-25T16:10:19.421Z,17.80
2019-02-25T16:12:46.361Z,19.23
2019-02-25T16:15:14.979Z,19.83
2019-02-25T16:17:43.582Z,19.43
2019-02-25T16:20:10.811Z,20.83
2019-02-25T16:22:39.109Z,22.00
2019-02-25T16:25:09.286Z,20.07
2019-02-25T16:27:36.894Z,20.70
2019-02-25T16:30:05.706Z,20.20
2019-02-25T16:32:33.822Z,19.90
2019-02-25T16:35:02.658Z,19.57
2019-02-25T16:37:31.220Z,18.43
2019-02-25T16:40:00.510Z,18.80
2019-02-25T16:42:28.232Z,19.23
2019-02-25T16:44:57.542Z,18.73
2019-02-25T16:47:32.833Z,17.00
2019-02-25T16:49:54.258Z,17.20
2019-02-25T16:52:24.366Z,17.67
2019-02-25T16:54:52.365Z,16.80
2019-02-25T16:57:21.175Z,18.83
2019-02-25T16:59:47.944Z,17.07
2019-02-25T17:02:15.105Z,17.93
2019-02-25T17:04:42.116Z,18.17
2019-02-25T17:07:09.063Z,16.97
2019-02-25T17:09:38.670Z,17.10
2019-02-25T17:12:06.867Z,18.70
2019-02-25T17:14:34.769Z,18.50
2019-02-25T17:17:02.122Z,17.50
2019-02-25T17:19:29.243Z,17.60
2019-02-25T17:21:56.208Z,19.20
2019-02-25T17:24:24.105Z,18.13
2019-02-25T17:26:52.093Z,18.70
2019-02-25T17:29:19.060Z,16.90
2019-02-25T17:31:46.004Z,19.30
2019-02-25T17:34:16.656Z,18.07
2019-02-25T17:36:44.851Z,17.83
2019-02-25T17:39:14.857Z,18.67
2019-02-25T17:41:42.603Z,18.20
2019-02-25T17:44:10.571Z,18.70
2019-02-25T17:46:39.108Z,19.60
2019-02-25T17:49:08.266Z,17.40
2019-02-25T17:51:35.745Z,18.10
2019-02-25T17:54:03.196Z,17.43
2019-02-25T17:56:30.227Z,17.60
2019-02-25T17:58:59.347Z,17.83
2019-02-25T18:01:27.994Z,17.80
2019-02-25T18:03:55.149Z,17.70
2019-02-25T18:06:22.905Z,18.07
2019-02-25T18:08:52.714Z,18.00
2019-02-25T18:11:20.217Z,19.13
2019-02-25T18:13:48.926Z,18.30
2019-02-25T18:16:18.994Z,19.77
2019-02-25T18:18:47.494Z,19.90
2019-02-25T18:21:14.837Z,19.20
2019-02-25T18:23:41.760Z,18.37
2019-02-25T18:26:08.847Z,20.97
2019-02-25T18:28:37.421Z,19.10
2019-02-25T18:31:08.474Z,19.40
2019-02-25T18:33:33.566Z,19.17
2019-02-25T18:36:01.993Z,19.30
2019-02-25T18:38:31.285Z,19.50
2019-02-25T18:41:00.079Z,20.60
2019-02-25T18:43:28.298Z,19.70
2019-02-25T18:45:56.655Z,19.20
2019-02-25T18:48:25.333Z,21.60
2019-02-25T18:50:56.621Z,20.80
2019-02-25T18:53:22.587Z,20.27
2019-02-25T18:55:52.248Z,19.20
2019-02-25T18:58:20.410Z,20.50
2019-02-25T19:00:49.291Z,20.50
2019-02-25T19:03:16.824Z,20.30
2019-02-25T19:05:43.762Z,20.27
2019-02-25T19:08:15.015Z,19.63
2019-02-25T19:10:45.323Z,21.00
2019-02-25T19:13:13.228Z,19.30
2019-02-25T19:15:40.269Z,19.97
2019-02-25T19:18:08.929Z,19.10
2019-02-25T19:20:36.694Z,19.80
2019-02-25T19:23:05.379Z,21.27
2019-02-25T19:25:33.113Z,20.93
2019-02-25T19:28:00.038Z,22.80
2019-02-25T19:30:27.918Z,23.30
2019-02-25T19:32:56.167Z,20.97
2019-02-25T19:35:25.817Z,20.80
2019-02-25T19:37:52.074Z,19.87
2019-02-25T19:40:20.042Z,19.17
2019-02-25T19:42:51.316Z,19.93
2019-02-25T19:45:19.117Z,20.50
2019-02-25T19:47:47.121Z,21.27
2019-02-25T19:50:15.958Z,18.87
2019-02-25T19:52:44.369Z,20.03
2019-02-25T19:55:13.022Z,20.70
2019-02-25T19:57:44.158Z,19.73
2019-02-25T20:00:14.879Z,20.40
2019-02-25T20:02:41.969Z,20.00
2019-02-25T20:05:11.724Z,19.77
2019-02-25T20:07:38.025Z,20.83
2019-02-25T20:10:05.211Z,19.50
2019-02-25T20:12:35.610Z,19.30
2019-02-25T20:15:07.126Z,20.57
2019-02-25T20:17:32.710Z,22.13
2019-02-25T20:19:59.590Z,21.10
2019-02-25T20:22:27.052Z,20.40
2019-02-25T20:24:55.240Z,20.37
2019-02-25T20:27:22.614Z,19.97
2019-02-25T20:29:58.029Z,21.80
2019-02-25T20:32:26.139Z,20.70
2019-02-25T20:34:57.202Z,20.57
2019-02-25T20:37:25.563Z,21.47
2019-02-25T20:39:53.855Z,20.30
2019-02-25T20:42:22.317Z,20.20
2019-02-25T20:44:52.865Z,21.00
2019-02-25T20:47:18.287Z,21.27
2019-02-25T20:49:47.415Z,21.83
2019-02-25T20:52:15.907Z,21.07
2019-02-25T20:54:45.418Z,19.90
2019-02-25T20:57:14.293Z,20.77
2019-02-25T20:59:42.832Z,20.80
2019-02-25T21:02:13.767Z,20.83
2019-02-25T21:04:40.726Z,20.20
2019-02-25T21:07:08.857Z,21.23
2019-02-25T21:09:38.345Z,21.20
2019-02-25T21:12:07.876Z,22.23
2019-02-25T21:14:40.310Z,19.93
2019-02-25T21:17:06.872Z,22.03
2019-02-25T21:19:36.165Z,20.90
2019-02-25T21:22:04.481Z,21.20
2019-02-25T21:24:33.298Z,21.00
2019-02-25T21:27:01.476Z,28.23
2019-02-25T21:29:31.637Z,21.80
2019-02-25T21:31:59.094Z,21.07
2019-02-25T21:34:27.055Z,20.53
2019-02-25T21:36:56.274Z,19.80
2019-02-25T21:39:23.668Z,20.40
2019-02-25T21:41:50.943Z,22.17
2019-02-25T21:44:19.506Z,21.10
2019-02-25T21:46:49.505Z,23.77
2019-02-25T21:49:15.286Z,22.60
2019-02-25T21:51:43.756Z,20.53
2019-02-25T21:54:11.099Z,21.80
2019-02-25T21:56:38.047Z,20.77
2019-02-25T21:59:06.235Z,22.10
2019-02-25T22:01:34.535Z,21.67
2019-02-25T22:04:02.624Z,20.73
2019-02-25T22:06:31.598Z,21.53
2019-02-25T22:09:00.775Z,20.80
2019-02-25T22:11:28.352Z,21.40
2019-02-25T22:13:55.458Z,21.77
2019-02-25T22:16:23.571Z,20.60
2019-02-25T22:18:52.135Z,20.63
2019-02-25T22:21:21.147Z,20.97
2019-02-25T22:23:49.481Z,20.70
2019-02-25T22:26:17.406Z,20.60
2019-02-25T22:28:44.336Z,19.20
2019-02-25T22:31:13.373Z,19.03
2019-02-25T22:33:40.085Z,21.67
2019-02-25T22:36:07.007Z,21.50
2019-02-25T22:38:33.922Z,19.60
2019-02-25T22:41:02.284Z,19.97
2019-02-25T22:43:29.379Z,20.17
2019-02-25T22:45:58.202Z,20.10
2019-02-25T22:48:26.740Z,21.07
2019-02-25T22:50:55.467Z,21.30
2019-02-25T22:53:22.645Z,20.93
2019-02-25T22:55:52.225Z,20.57
2019-02-25T22:58:18.841Z,20.93
2019-02-25T23:00:48.847Z,20.57
2019-02-25T23:03:18.538Z,20.00
2019-02-25T23:05:46.904Z,20.83
2019-02-25T23:08:15.353Z,19.93
2019-02-25T23:10:44.361Z,19.80
2019-02-25T23:13:12.506Z,22.30
2019-02-25T23:15:39.335Z,20.10
2019-02-25T23:18:10.055Z,20.53
2019-02-25T23:20:35.042Z,21.33
2019-02-25T23:23:04.857Z,20.80
2019-02-25T23:25:30.791Z,20.97
2019-02-25T23:27:58.503Z,21.00
2019-02-25T23:30:26.462Z,21.47
2019-02-25T23:32:54.527Z,20.10
2019-02-25T23:35:23.008Z,20.70
2019-02-25T23:37:51.406Z,20.40
2019-02-25T23:40:19.560Z,21.57
2019-02-25T23:42:48.523Z,20.70
2019-02-25T23:45:17.435Z,19.93
2019-02-25T23:47:44.416Z,20.07
2019-02-25T23:50:13.538Z,20.13
2019-02-25T23:52:40.284Z,20.03
2019-02-25T23:55:07.621Z,20.90
2019-02-25T23:57:35.247Z,21.13
